Time;durP1;ratioP1;P1;durP2;ratioP2;P2;SDS_P1;SDS_P2;PMS_P1;PMS_P2;Temp;Humidity;BMP_temperature;BMP_pressure;BME280_temperature;BME280_humidity;BME280_pressure;Samples;Min_cycle;Max_cycle;Signal;HPM_P1;HPM_P2
2021/10/12 00:00:44;;;;;;;13.47;8.37;;;;;;;;;;4434942;32;20684;-55
2021/10/12 00:03:10;;;;;;;10.73;7.20;;;;;;;;;;4444857;32;20655;-54
2021/10/12 00:05:35;;;;;;;27.87;10.23;;;;;;;;;;4437884;32;20315;-55
2021/10/12 00:08:01;;;;;;;9.77;7.73;;;;;;;;;;4433863;32;20455;-53
2021/10/12 00:10:26;;;;;;;12.60;7.67;;;;;;;;;;4439299;32;20347;-55
2021/10/12 00:12:52;;;;;;;16.90;9.00;;;;;;;;;;4420521;32;20834;-54
2021/10/12 00:15:17;;;;;;;11.03;7.70;;;;;;;;;;4443084;32;20359;-54
2021/10/12 00:17:42;;;;;;;24.80;14.60;;;;;;;;;;4432347;32;20264;-53
2021/10/12 00:20:08;;;;;;;30.03;13.90;;;;;;;;;;4432170;32;20738;-53
2021/10/12 00:22:35;;;;;;;24.03;13.13;;;;;;;;;;4432742;32;20306;-53
2021/10/12 00:25:00;;;;;;;17.80;10.77;;;;;;;;;;4432083;32;20196;-54
2021/10/12 00:27:26;;;;;;;11.87;8.57;;;;;;;;;;4432689;32;20255;-53
2021/10/12 00:29:52;;;;;;;9.23;6.43;;;;;;;;;;4432672;32;20325;-55
2021/10/12 00:32:17;;;;;;;10.43;5.80;;;;;;;;;;4432054;32;20705;-54
2021/10/12 00:34:43;;;;;;;10.13;5.17;;;;;;;;;;4434172;32;20656;-54
2021/10/12 00:37:09;;;;;;;4.40;3.57;;;;;;;;;;4436366;32;20583;-56
2021/10/12 00:39:35;;;;;;;5.00;3.50;;;;;;;;;;4441315;32;20721;-56
2021/10/12 00:42:00;;;;;;;8.37;4.77;;;;;;;;;;4437103;32;20281;-54
2021/10/12 00:44:26;;;;;;;15.13;8.93;;;;;;;;;;4446524;32;20298;-55
2021/10/12 00:46:52;;;;;;;16.73;8.70;;;;;;;;;;4437670;32;20323;-54
2021/10/12 00:49:18;;;;;;;12.40;7.40;;;;;;;;;;4439350;32;20293;-54
2021/10/12 00:51:44;;;;;;;8.23;5.53;;;;;;;;;;4438679;32;20268;-52
2021/10/12 00:54:09;;;;;;;10.17;6.43;;;;;;;;;;4444510;32;20275;-54
2021/10/12 00:56:36;;;;;;;12.13;6.03;;;;;;;;;;4437583;32;20669;-54
2021/10/12 00:59:02;;;;;;;9.43;6.00;;;;;;;;;;4437070;32;20339;-54
2021/10/12 01:01:28;;;;;;;8.87;6.43;;;;;;;;;;4444420;32;20903;-53
2021/10/12 01:03:53;;;;;;;10.10;6.43;;;;;;;;;;4443564;32;20330;-53
2021/10/12 01:06:19;;;;;;;10.67;6.50;;;;;;;;;;4440832;32;20573;-55
2021/10/12 01:08:44;;;;;;;10.30;7.63;;;;;;;;;;4435464;32;20288;-55
2021/10/12 01:11:11;;;;;;;7.77;5.90;;;;;;;;;;4438941;32;20228;-54
2021/10/12 01:13:37;;;;;;;10.17;5.57;;;;;;;;;;4443940;32;20209;-55
2021/10/12 01:16:03;;;;;;;10.30;4.07;;;;;;;;;;4442361;32;20253;-53
2021/10/12 01:18:28;;;;;;;4.87;3.80;;;;;;;;;;4438322;32;20303;-55
2021/10/12 01:20:54;;;;;;;4.80;3.83;;;;;;;;;;4444174;32;20244;-54
2021/10/12 01:23:20;;;;;;;10.03;3.87;;;;;;;;;;4445984;32;20795;-54
2021/10/12 01:25:46;;;;;;;7.27;3.73;;;;;;;;;;4436460;32;20272;-55
2021/10/12 01:28:11;;;;;;;4.03;3.40;;;;;;;;;;4419992;32;20419;-56
2021/10/12 01:30:39;;;;;;;6.70;3.73;;;;;;;;;;4433976;32;20272;-54
2021/10/12 01:33:05;;;;;;;4.97;3.53;;;;;;;;;;4433941;32;20243;-54
2021/10/12 01:35:32;;;;;;;4.33;3.27;;;;;;;;;;4439730;32;20270;-54
2021/10/12 01:37:57;;;;;;;3.63;2.93;;;;;;;;;;4441180;32;20208;-54
2021/10/12 01:40:23;;;;;;;10.97;3.50;;;;;;;;;;4442031;32;20692;-55
2021/10/12 01:42:48;;;;;;;4.57;3.50;;;;;;;;;;4435074;32;20844;-56
2021/10/12 01:45:14;;;;;;;5.77;3.63;;;;;;;;;;4445740;32;20300;-53
2021/10/12 01:47:41;;;;;;;3.37;3.07;;;;;;;;;;4433710;32;20700;-54
2021/10/12 01:50:10;;;;;;;3.27;2.67;;;;;;;;;;4433828;32;20253;-54
2021/10/12 01:52:36;;;;;;;4.47;3.30;;;;;;;;;;4433876;32;20261;-54
2021/10/12 01:55:02;;;;;;;5.57;3.37;;;;;;;;;;4433642;32;20276;-55
2021/10/12 01:57:27;;;;;;;5.00;3.00;;;;;;;;;;4433487;32;20629;-54
2021/10/12 01:59:53;;;;;;;4.43;2.90;;;;;;;;;;4436592;32;20267;-56
2021/10/12 02:02:18;;;;;;;3.90;3.07;;;;;;;;;;4443944;32;20232;-54
2021/10/12 02:04:44;;;;;;;4.50;3.10;;;;;;;;;;4442208;32;20388;-56
2021/10/12 02:07:09;;;;;;;3.60;2.97;;;;;;;;;;4433536;32;20258;-54
2021/10/12 02:09:35;;;;;;;3.77;3.17;;;;;;;;;;4433916;32;20562;-56
2021/10/12 02:12:01;;;;;;;5.30;3.60;;;;;;;;;;4438278;32;20316;-55
2021/10/12 02:14:27;;;;;;;4.97;3.87;;;;;;;;;;4445285;32;20292;-57
2021/10/12 02:16:52;;;;;;;5.03;4.20;;;;;;;;;;4436069;32;20308;-54
2021/10/12 02:19:18;;;;;;;5.17;3.47;;;;;;;;;;4444738;32;20287;-54
2021/10/12 02:21:43;;;;;;;10.00;4.13;;;;;;;;;;4433353;32;20228;-54
2021/10/12 02:24:10;;;;;;;6.43;5.03;;;;;;;;;;4433915;32;20602;-56
2021/10/12 02:26:35;;;;;;;6.50;5.07;;;;;;;;;;4435671;32;20212;-53
2021/10/12 02:29:00;;;;;;;6.80;5.07;;;;;;;;;;4435578;32;20343;-53
2021/10/12 02:31:26;;;;;;;6.20;3.30;;;;;;;;;;4438956;32;20651;-54
2021/10/12 02:33:52;;;;;;;5.30;3.73;;;;;;;;;;4441255;32;20341;-55
2021/10/12 02:36:17;;;;;;;4.03;2.70;;;;;;;;;;4438149;32;20586;-54
2021/10/12 02:38:43;;;;;;;3.60;2.97;;;;;;;;;;4433221;32;20325;-56
2021/10/12 02:41:09;;;;;;;5.27;3.63;;;;;;;;;;4433200;32;20308;-54
2021/10/12 02:43:35;;;;;;;3.77;3.20;;;;;;;;;;4433323;32;20637;-54
2021/10/12 02:46:01;;;;;;;6.43;3.33;;;;;;;;;;4441444;32;20308;-54
2021/10/12 02:48:26;;;;;;;7.47;5.00;;;;;;;;;;4437323;32;20303;-55
2021/10/12 02:50:51;;;;;;;7.83;4.97;;;;;;;;;;4434978;32;20265;-54
2021/10/12 02:53:18;;;;;;;8.47;4.40;;;;;;;;;;4433079;32;20294;-54
2021/10/12 02:55:44;;;;;;;6.33;4.00;;;;;;;;;;4434839;32;20735;-55
2021/10/12 02:58:10;;;;;;;4.97;3.77;;;;;;;;;;4432326;32;20225;-55
2021/10/12 03:00:35;;;;;;;5.50;3.70;;;;;;;;;;4439347;32;20656;-54
2021/10/12 03:03:01;;;;;;;12.57;4.50;;;;;;;;;;4446380;32;20193;-54
2021/10/12 03:05:26;;;;;;;14.10;4.67;;;;;;;;;;4438660;32;20348;-55
2021/10/12 03:07:52;;;;;;;10.40;5.37;;;;;;;;;;4433148;32;20244;-54
2021/10/12 03:10:18;;;;;;;3.53;3.17;;;;;;;;;;4432276;32;20392;-54
2021/10/12 03:12:43;;;;;;;5.70;4.03;;;;;;;;;;4443548;32;20240;-54
2021/10/12 03:15:09;;;;;;;4.57;3.77;;;;;;;;;;4434340;32;20271;-54
2021/10/12 03:17:34;;;;;;;6.50;3.93;;;;;;;;;;4418773;32;20236;-54
2021/10/12 03:20:00;;;;;;;6.80;5.10;;;;;;;;;;4440845;32;20343;-54
2021/10/12 03:22:26;;;;;;;6.80;5.30;;;;;;;;;;4432676;32;20229;-53
2021/10/12 03:24:52;;;;;;;9.07;6.60;;;;;;;;;;4445549;32;20275;-55
2021/10/12 03:27:17;;;;;;;6.97;5.00;;;;;;;;;;4432439;32;20248;-54
2021/10/12 03:29:43;;;;;;;8.33;4.90;;;;;;;;;;4432835;32;20307;-55
2021/10/12 03:32:09;;;;;;;7.63;4.70;;;;;;;;;;4431878;32;20216;-54
2021/10/12 03:34:35;;;;;;;5.00;4.47;;;;;;;;;;4418790;32;20382;-54
2021/10/12 03:37:01;;;;;;;4.77;4.27;;;;;;;;;;4434374;32;20723;-54
2021/10/12 03:39:28;;;;;;;5.37;4.17;;;;;;;;;;4437672;32;20485;-55
2021/10/12 03:41:53;;;;;;;10.00;6.67;;;;;;;;;;4420802;32;20268;-56
2021/10/12 03:44:21;;;;;;;9.40;5.93;;;;;;;;;;4443383;32;20283;-55
2021/10/12 03:46:46;;;;;;;6.17;5.37;;;;;;;;;;4434682;32;20251;-54
2021/10/12 03:49:12;;;;;;;9.73;5.87;;;;;;;;;;4444695;32;20288;-55
2021/10/12 03:51:40;;;;;;;11.00;5.77;;;;;;;;;;4432107;32;20257;-54
2021/10/12 03:54:05;;;;;;;8.60;6.73;;;;;;;;;;4432421;32;20212;-54
2021/10/12 03:56:31;;;;;;;9.57;5.93;;;;;;;;;;4434074;32;20221;-55
2021/10/12 03:58:56;;;;;;;7.90;6.67;;;;;;;;;;4445318;32;20343;-53
2021/10/12 04:01:22;;;;;;;9.40;6.40;;;;;;;;;;4438643;32;20518;-54
2021/10/12 04:03:48;;;;;;;12.37;6.63;;;;;;;;;;4441507;32;20224;-54
2021/10/12 04:06:15;;;;;;;13.50;8.07;;;;;;;;;;4437301;32;20329;-53
2021/10/12 04:08:41;;;;;;;19.73;11.30;;;;;;;;;;4434223;32;20271;-55
2021/10/12 04:11:06;;;;;;;26.47;12.20;;;;;;;;;;4438450;32;20224;-54
2021/10/12 04:13:31;;;;;;;29.90;11.80;;;;;;;;;;4440896;32;20295;-54
2021/10/12 04:15:57;;;;;;;25.53;9.67;;;;;;;;;;4442688;32;20246;-53
2021/10/12 04:18:22;;;;;;;14.13;7.70;;;;;;;;;;4435351;32;20284;-53
2021/10/12 04:20:48;;;;;;;13.17;5.90;;;;;;;;;;4435263;32;20213;-53
2021/10/12 04:23:13;;;;;;;10.00;4.87;;;;;;;;;;4435241;32;20287;-52
2021/10/12 04:25:40;;;;;;;12.03;4.67;;;;;;;;;;4437079;32;20294;-53
2021/10/12 04:28:11;;;;;;;5.40;3.37;;;;;;;;;;4435238;32;20217;-53
2021/10/12 04:30:41;;;;;;;5.77;4.37;;;;;;;;;;4443313;32;20231;-53
2021/10/12 04:33:07;;;;;;;8.23;4.40;;;;;;;;;;4437578;32;20255;-53
2021/10/12 04:35:33;;;;;;;5.10;3.37;;;;;;;;;;4444844;32;20306;-53
2021/10/12 04:37:58;;;;;;;3.77;2.93;;;;;;;;;;4443618;32;20212;-53
2021/10/12 04:40:25;;;;;;;7.60;4.67;;;;;;;;;;4438794;32;20314;-53
2021/10/12 04:42:51;;;;;;;16.13;8.23;;;;;;;;;;4441212;32;20212;-53
2021/10/12 04:45:17;;;;;;;15.23;8.27;;;;;;;;;;4444809;32;20303;-54
2021/10/12 04:47:42;;;;;;;10.97;7.50;;;;;;;;;;4434892;32;20221;-55
2021/10/12 04:50:08;;;;;;;8.90;5.90;;;;;;;;;;4435084;32;20754;-55
2021/10/12 04:52:34;;;;;;;6.80;4.57;;;;;;;;;;4434435;32;20225;-55
2021/10/12 04:54:59;;;;;;;5.27;4.57;;;;;;;;;;4435884;32;20335;-55
2021/10/12 04:57:24;;;;;;;6.17;4.57;;;;;;;;;;4434683;32;20289;-55
2021/10/12 04:59:50;;;;;;;4.97;4.20;;;;;;;;;;4440367;32;20421;-55
2021/10/12 05:02:15;;;;;;;6.57;5.30;;;;;;;;;;4446223;32;20260;-55
2021/10/12 05:04:41;;;;;;;5.67;4.63;;;;;;;;;;4442554;32;20329;-55
2021/10/12 05:07:06;;;;;;;8.47;5.10;;;;;;;;;;4433905;32;20348;-55
2021/10/12 05:09:32;;;;;;;12.67;8.73;;;;;;;;;;4434598;32;20784;-56
2021/10/12 05:11:57;;;;;;;8.43;6.97;;;;;;;;;;4440046;32;20216;-54
2021/10/12 05:14:23;;;;;;;9.70;6.63;;;;;;;;;;4438103;32;20630;-56
2021/10/12 05:16:50;;;;;;;7.37;5.80;;;;;;;;;;4435726;32;20542;-53
2021/10/12 05:19:16;;;;;;;8.00;5.63;;;;;;;;;;4437617;32;20423;-54
2021/10/12 05:21:42;;;;;;;10.27;6.93;;;;;;;;;;4438168;32;20382;-53
2021/10/12 05:24:07;;;;;;;13.23;10.00;;;;;;;;;;4440441;32;20358;-54
2021/10/12 05:26:33;;;;;;;13.33;9.30;;;;;;;;;;4421284;32;20258;-55
2021/10/12 05:28:58;;;;;;;12.10;7.30;;;;;;;;;;4445790;32;20356;-57
2021/10/12 05:31:24;;;;;;;11.90;7.90;;;;;;;;;;4423830;32;20231;-55
2021/10/12 05:33:50;;;;;;;8.00;4.50;;;;;;;;;;4441265;32;20291;-59
2021/10/12 05:36:15;;;;;;;6.33;4.73;;;;;;;;;;4443266;32;20371;-54
2021/10/12 05:38:41;;;;;;;5.67;3.87;;;;;;;;;;4440138;32;20295;-55
2021/10/12 05:41:10;;;;;;;8.83;4.70;;;;;;;;;;4431096;32;20664;-55
2021/10/12 05:43:35;;;;;;;6.07;4.23;;;;;;;;;;4436240;32;20337;-54
2021/10/12 05:46:01;;;;;;;5.37;3.23;;;;;;;;;;4437572;32;20324;-55
2021/10/12 05:48:28;;;;;;;5.30;3.47;;;;;;;;;;4441851;32;20729;-56
2021/10/12 05:50:54;;;;;;;6.20;3.33;;;;;;;;;;4434875;32;20295;-55
2021/10/12 05:58:14;;;;;;;5.93;4.10;;;;;;;;;;4433772;32;20220;-55
2021/10/12 06:00:40;;;;;;;6.30;3.60;;;;;;;;;;4438138;32;20354;-55
2021/10/12 06:03:06;;;;;;;5.20;3.20;;;;;;;;;;4433757;32;20239;-54
2021/10/12 06:05:34;;;;;;;5.33;3.17;;;;;;;;;;4439318;32;20641;-53
2021/10/12 06:07:59;;;;;;;5.30;3.13;;;;;;;;;;4436712;32;20704;-55
2021/10/12 06:10:25;;;;;;;7.53;4.00;;;;;;;;;;4436128;32;20288;-56
2021/10/12 06:12:50;;;;;;;6.13;3.47;;;;;;;;;;4443725;32;20711;-55
2021/10/12 06:15:16;;;;;;;4.63;2.83;;;;;;;;;;4434932;32;20271;-55
2021/10/12 06:17:41;;;;;;;4.70;2.90;;;;;;;;;;4433391;32;20815;-54
2021/10/12 06:20:07;;;;;;;7.30;4.40;;;;;;;;;;4441328;32;20577;-55
2021/10/12 06:22:32;;;;;;;6.10;4.10;;;;;;;;;;4433081;32;20263;-55
2021/10/12 06:24:58;;;;;;;7.53;4.00;;;;;;;;;;4446162;32;20413;-55
2021/10/12 06:27:23;;;;;;;7.60;5.00;;;;;;;;;;4436322;32;20232;-54
2021/10/12 06:29:49;;;;;;;7.77;4.30;;;;;;;;;;4440696;32;20378;-56
2021/10/12 06:32:14;;;;;;;5.13;4.17;;;;;;;;;;4432547;32;20224;-54
2021/10/12 06:34:40;;;;;;;5.57;2.87;;;;;;;;;;4443137;32;20672;-54
2021/10/12 06:37:05;;;;;;;3.67;2.60;;;;;;;;;;4435745;32;20252;-54
2021/10/12 06:39:31;;;;;;;5.13;3.10;;;;;;;;;;4438704;32;20333;-55
2021/10/12 06:41:56;;;;;;;4.03;3.23;;;;;;;;;;4437957;32;20269;-54
2021/10/12 06:44:22;;;;;;;2.63;1.93;;;;;;;;;;4431722;32;20327;-54
2021/10/12 06:46:47;;;;;;;10.17;6.00;;;;;;;;;;4443038;32;20346;-54
2021/10/12 06:49:13;;;;;;;11.30;4.67;;;;;;;;;;4430679;32;20429;-55
2021/10/12 06:51:38;;;;;;;4.57;2.97;;;;;;;;;;4436178;32;20271;-54
2021/10/12 06:54:04;;;;;;;3.80;2.77;;;;;;;;;;4440805;32;20272;-55
2021/10/12 06:56:31;;;;;;;5.20;2.70;;;;;;;;;;4435680;32;20251;-55
2021/10/12 06:58:57;;;;;;;2.83;2.47;;;;;;;;;;4420048;32;20348;-56
2021/10/12 07:01:22;;;;;;;6.13;3.03;;;;;;;;;;4441412;32;20299;-55
2021/10/12 07:03:48;;;;;;;4.83;2.63;;;;;;;;;;4427037;32;20581;-54
2021/10/12 07:06:13;;;;;;;4.30;3.00;;;;;;;;;;4437144;32;20263;-54
2021/10/12 07:08:39;;;;;;;10.00;6.63;;;;;;;;;;4431467;32;20302;-54
2021/10/12 07:11:04;;;;;;;6.37;3.97;;;;;;;;;;4439523;32;20237;-54
2021/10/12 07:13:30;;;;;;;10.67;6.27;;;;;;;;;;4437398;32;20279;-54
2021/10/12 07:15:56;;;;;;;20.33;12.20;;;;;;;;;;4439503;32;20417;-55
2021/10/12 07:18:23;;;;;;;24.53;16.07;;;;;;;;;;4431946;32;20321;-56
2021/10/12 07:20:48;;;;;;;11.93;8.00;;;;;;;;;;4434535;32;20212;-55
2021/10/12 07:23:14;;;;;;;10.20;6.97;;;;;;;;;;4438831;32;20292;-54
2021/10/12 07:25:40;;;;;;;8.67;7.33;;;;;;;;;;4442299;32;20600;-55
2021/10/12 07:28:05;;;;;;;12.73;7.93;;;;;;;;;;4447296;32;20201;-54
2021/10/12 07:30:31;;;;;;;9.23;5.57;;;;;;;;;;4443449;32;20350;-55
2021/10/12 07:32:56;;;;;;;6.47;4.43;;;;;;;;;;4432117;32;20209;-55
2021/10/12 07:35:22;;;;;;;12.90;5.67;;;;;;;;;;4434088;32;20320;-55
2021/10/12 07:37:47;;;;;;;10.60;5.40;;;;;;;;;;4447022;32;20340;-54
2021/10/12 07:40:13;;;;;;;5.13;3.13;;;;;;;;;;4445561;32;20321;-54
2021/10/12 07:42:39;;;;;;;7.10;4.60;;;;;;;;;;4430684;32;20248;-54
2021/10/12 07:45:05;;;;;;;6.77;4.63;;;;;;;;;;4431940;32;20272;-55
2021/10/12 07:47:31;;;;;;;16.00;8.87;;;;;;;;;;4432108;32;20228;-54
2021/10/12 07:49:56;;;;;;;10.37;6.53;;;;;;;;;;4431828;32;20279;-54
2021/10/12 07:52:22;;;;;;;10.97;5.63;;;;;;;;;;4437143;32;20264;-55
2021/10/12 07:54:51;;;;;;;4.93;3.50;;;;;;;;;;4443841;32;20315;-55
2021/10/12 07:57:18;;;;;;;5.80;3.33;;;;;;;;;;4442386;32;20388;-54
2021/10/12 07:59:45;;;;;;;7.20;5.00;;;;;;;;;;4436425;32;20625;-55
2021/10/12 08:02:12;;;;;;;11.67;8.27;;;;;;;;;;4439458;32;20359;-55
2021/10/12 08:04:40;;;;;;;11.20;7.47;;;;;;;;;;4435480;32;20259;-56
2021/10/12 08:07:05;;;;;;;16.70;9.10;;;;;;;;;;4431899;32;20292;-56
2021/10/12 08:09:31;;;;;;;9.50;6.37;;;;;;;;;;4431784;32;20287;-56
2021/10/12 08:11:57;;;;;;;10.13;5.67;;;;;;;;;;4437790;32;20315;-56
2021/10/12 08:14:24;;;;;;;11.00;7.53;;;;;;;;;;4417920;32;20735;-55
2021/10/12 08:16:49;;;;;;;7.10;4.63;;;;;;;;;;4432521;32;20220;-56
2021/10/12 08:19:15;;;;;;;11.23;5.40;;;;;;;;;;4431903;32;20335;-57
2021/10/12 08:21:40;;;;;;;8.47;4.63;;;;;;;;;;4442600;32;20277;-55
2021/10/12 08:24:06;;;;;;;4.27;3.40;;;;;;;;;;4447498;32;20336;-55
2021/10/12 08:26:32;;;;;;;7.13;4.57;;;;;;;;;;4437160;32;20334;-55
2021/10/12 08:28:57;;;;;;;3.60;2.50;;;;;;;;;;4431630;32;20292;-56
2021/10/12 08:31:24;;;;;;;5.83;4.27;;;;;;;;;;4430952;32;20324;-55
2021/10/12 08:33:50;;;;;;;3.87;2.97;;;;;;;;;;4432401;32;20217;-55
2021/10/12 08:36:15;;;;;;;5.00;3.80;;;;;;;;;;4434495;32;20720;-56
2021/10/12 08:38:43;;;;;;;3.43;2.97;;;;;;;;;;4434195;32;20441;-57
2021/10/12 08:41:09;;;;;;;4.70;3.37;;;;;;;;;;4428365;32;20733;-55
2021/10/12 08:43:37;;;;;;;5.77;3.17;;;;;;;;;;4426824;32;20346;-55
2021/10/12 08:46:03;;;;;;;6.53;2.70;;;;;;;;;;4440377;32;20298;-55
2021/10/12 08:48:32;;;;;;;7.10;3.17;;;;;;;;;;4443372;32;20212;-55
2021/10/12 08:51:02;;;;;;;4.60;3.00;;;;;;;;;;4418038;32;20299;-54
2021/10/12 08:53:29;;;;;;;8.10;3.83;;;;;;;;;;4436928;32;20333;-54
2021/10/12 08:55:57;;;;;;;4.03;2.87;;;;;;;;;;4445741;32;20212;-55
2021/10/12 08:58:24;;;;;;;5.03;3.00;;;;;;;;;;4437388;32;20558;-54
2021/10/12 09:01:07;;;;;;;9.43;3.30;;;;;;;;;;4446150;32;20252;-55
2021/10/12 09:03:51;;;;;;;6.27;3.10;;;;;;;;;;4449369;32;20231;-54
2021/10/12 09:06:33;;;;;;;7.37;3.73;;;;;;;;;;4448156;32;20691;-54
2021/10/12 09:09:07;;;;;;;11.40;2.80;;;;;;;;;;4442162;32;20216;-54
2021/10/12 09:11:35;;;;;;;3.13;2.40;;;;;;;;;;4439626;32;20401;-54
2021/10/12 09:14:04;;;;;;;3.97;2.83;;;;;;;;;;4445504;32;20228;-55
2021/10/12 09:16:37;;;;;;;6.57;3.50;;;;;;;;;;4433101;32;20246;-54
2021/10/12 09:19:05;;;;;;;3.57;2.63;;;;;;;;;;4441130;32;20303;-54
2021/10/12 09:21:33;;;;;;;3.83;2.80;;;;;;;;;;4440024;32;20489;-53
2021/10/12 09:24:10;;;;;;;4.80;3.47;;;;;;;;;;4438978;32;20202;-55
2021/10/12 09:26:52;;;;;;;5.60;3.47;;;;;;;;;;4446011;32;20275;-53
2021/10/12 09:29:27;;;;;;;3.57;3.13;;;;;;;;;;4439634;32;20224;-54
2021/10/12 09:31:57;;;;;;;5.70;4.07;;;;;;;;;;4423208;32;20407;-54
2021/10/12 09:34:23;;;;;;;6.50;5.17;;;;;;;;;;4439646;32;20340;-55
2021/10/12 09:36:51;;;;;;;4.33;3.13;;;;;;;;;;4432679;32;20277;-53
2021/10/12 09:39:37;;;;;;;5.63;3.90;;;;;;;;;;4439863;32;20648;-54
2021/10/12 09:42:07;;;;;;;6.13;4.63;;;;;;;;;;4433421;32;20331;-53
2021/10/12 09:44:34;;;;;;;10.10;6.10;;;;;;;;;;4444366;32;20335;-54
2021/10/12 09:47:13;;;;;;;10.57;6.40;;;;;;;;;;4439467;32;20260;-54
2021/10/12 09:49:39;;;;;;;15.03;13.43;;;;;;;;;;4436774;32;20258;-54
2021/10/12 09:52:10;;;;;;;8.27;7.47;;;;;;;;;;4444635;32;20308;-54
2021/10/12 09:54:37;;;;;;;6.90;5.23;;;;;;;;;;4437477;32;20254;-54
2021/10/12 09:57:05;;;;;;;7.97;5.43;;;;;;;;;;4442467;32;20629;-54
2021/10/12 09:59:33;;;;;;;8.70;5.60;;;;;;;;;;4438393;32;20817;-54
2021/10/12 10:01:59;;;;;;;11.93;6.90;;;;;;;;;;4437245;32;20370;-54
2021/10/12 10:04:27;;;;;;;14.50;10.20;;;;;;;;;;4444405;32;20347;-54
2021/10/12 10:07:01;;;;;;;13.33;7.10;;;;;;;;;;4435207;32;20341;-54
2021/10/12 10:09:27;;;;;;;8.47;5.23;;;;;;;;;;4440551;32;20239;-54
2021/10/12 10:11:53;;;;;;;7.50;4.97;;;;;;;;;;4440083;32;20325;-55
2021/10/12 10:14:19;;;;;;;8.27;4.60;;;;;;;;;;4437626;32;20319;-54
2021/10/12 10:16:57;;;;;;;15.97;6.23;;;;;;;;;;4431782;32;20675;-54
2021/10/12 10:19:27;;;;;;;8.17;5.47;;;;;;;;;;4441390;32;20342;-54
2021/10/12 10:21:53;;;;;;;5.57;4.10;;;;;;;;;;4421086;32;20312;-54
2021/10/12 10:24:38;;;;;;;3.27;2.47;;;;;;;;;;4444315;32;20736;-54
2021/10/12 10:27:04;;;;;;;3.20;2.63;;;;;;;;;;4433086;32;20263;-55
2021/10/12 10:29:37;;;;;;;2.83;1.90;;;;;;;;;;4432561;32;20360;-54
2021/10/12 10:32:15;;;;;;;6.80;3.00;;;;;;;;;;4441276;32;20311;-54
2021/10/12 10:35:00;;;;;;;3.17;2.73;;;;;;;;;;4437434;32;20208;-54
2021/10/12 10:37:28;;;;;;;3.10;2.50;;;;;;;;;;4424810;32;20220;-53
2021/10/12 10:39:57;;;;;;;3.87;2.60;;;;;;;;;;4445172;32;20220;-54
2021/10/12 10:42:26;;;;;;;4.43;3.33;;;;;;;;;;4432536;32;20656;-54
2021/10/12 10:44:56;;;;;;;5.30;3.37;;;;;;;;;;4438466;32;20852;-54
2021/10/12 10:47:40;;;;;;;6.13;3.77;;;;;;;;;;4442139;32;20369;-54
2021/10/12 10:50:41;;;;;;;8.40;4.83;;;;;;;;;;4446344;32;20300;-54
2021/10/12 10:53:10;;;;;;;8.63;3.80;;;;;;;;;;4354297;32;20222;-54
2021/10/12 10:55:44;;;;;;;5.37;3.23;;;;;;;;;;4429007;32;20359;-54
2021/10/12 10:58:12;;;;;;;2.80;2.33;;;;;;;;;;4432733;32;20243;-53
2021/10/12 11:00:50;;;;;;;3.37;2.27;;;;;;;;;;4436690;32;20200;-54
2021/10/12 11:03:28;;;;;;;4.10;2.23;;;;;;;;;;4431783;32;20613;-54
2021/10/12 11:05:54;;;;;;;5.07;2.63;;;;;;;;;;4443938;32;20247;-54
2021/10/12 11:08:21;;;;;;;6.80;4.67;;;;;;;;;;4434184;32;20291;-54
2021/10/12 11:10:54;;;;;;;11.43;6.30;;;;;;;;;;4440898;32;20582;-53
2021/10/12 11:13:26;;;;;;;8.13;5.37;;;;;;;;;;4439645;32;20246;-53
2021/10/12 11:15:52;;;;;;;9.43;5.57;;;;;;;;;;4434864;32;20660;-53
2021/10/12 11:18:17;;;;;;;8.53;5.67;;;;;;;;;;4443912;32;20345;-56
2021/10/12 11:20:51;;;;;;;8.73;6.57;;;;;;;;;;4438228;32;20378;-55
2021/10/12 11:23:40;;;;;;;10.47;5.57;;;;;;;;;;4434985;32;20723;-54
2021/10/12 11:26:15;;;;;;;17.23;7.60;;;;;;;;;;4433777;32;20546;-53
2021/10/12 11:28:46;;;;;;;10.80;7.00;;;;;;;;;;4440694;32;20236;-53
2021/10/12 11:31:14;;;;;;;13.57;7.67;;;;;;;;;;4443240;32;20258;-54
2021/10/12 11:33:45;;;;;;;12.40;7.93;;;;;;;;;;4439001;32;20258;-54
2021/10/12 11:36:14;;;;;;;10.00;6.60;;;;;;;;;;4442634;32;20220;-53
2021/10/12 11:38:45;;;;;;;10.47;7.17;;;;;;;;;;4444557;32;20212;-52
2021/10/12 11:41:16;;;;;;;14.37;10.10;;;;;;;;;;4434316;32;20224;-53
2021/10/12 11:43:43;;;;;;;11.17;8.23;;;;;;;;;;4439744;32;20318;-53
2021/10/12 11:46:09;;;;;;;11.20;7.13;;;;;;;;;;4442852;32;20427;-54
2021/10/12 11:48:39;;;;;;;11.63;8.20;;;;;;;;;;4433625;32;21064;-54
2021/10/12 11:51:20;;;;;;;14.27;6.53;;;;;;;;;;4434341;32;20651;-54
2021/10/12 11:53:47;;;;;;;14.73;7.77;;;;;;;;;;4437528;32;20296;-53
2021/10/12 11:56:13;;;;;;;12.67;7.80;;;;;;;;;;4442698;32;20248;-53
2021/10/12 11:58:40;;;;;;;14.97;9.37;;;;;;;;;;4444003;32;20282;-55
2021/10/12 12:01:07;;;;;;;20.13;10.93;;;;;;;;;;4433152;32;20253;-54
2021/10/12 12:03:33;;;;;;;8.50;5.97;;;;;;;;;;4434960;32;20768;-54
2021/10/12 12:05:59;;;;;;;7.77;6.13;;;;;;;;;;4441647;32;20205;-53
2021/10/12 12:08:29;;;;;;;14.80;7.70;;;;;;;;;;4430735;32;20295;-54
2021/10/12 12:10:56;;;;;;;19.80;11.33;;;;;;;;;;4432768;32;20228;-55
2021/10/12 12:13:26;;;;;;;29.87;18.23;;;;;;;;;;4447036;32;20307;-54
2021/10/12 12:15:52;;;;;;;27.43;15.90;;;;;;;;;;4434469;32;20237;-54
2021/10/12 12:18:20;;;;;;;23.67;15.20;;;;;;;;;;4433032;32;20321;-53
2021/10/12 12:20:53;;;;;;;16.90;11.03;;;;;;;;;;4432863;32;20277;-53
2021/10/12 12:23:36;;;;;;;17.73;12.50;;;;;;;;;;4431615;32;20221;-53
2021/10/12 12:26:04;;;;;;;19.97;11.33;;;;;;;;;;4432751;32;20246;-52
2021/10/12 12:28:30;;;;;;;22.23;12.73;;;;;;;;;;4432129;32;20193;-53
2021/10/12 12:30:55;;;;;;;15.20;9.57;;;;;;;;;;4435678;32;20217;-54
2021/10/12 12:33:21;;;;;;;17.27;10.23;;;;;;;;;;4434836;32;20335;-55
2021/10/12 12:35:52;;;;;;;29.90;16.03;;;;;;;;;;4444631;32;20256;-53
2021/10/12 12:38:26;;;;;;;26.63;15.23;;;;;;;;;;4435650;32;20263;-54
2021/10/12 12:40:53;;;;;;;18.40;8.20;;;;;;;;;;4435873;32;20295;-54
2021/10/12 12:43:23;;;;;;;18.43;9.03;;;;;;;;;;4444762;32;20255;-54
2021/10/12 12:46:14;;;;;;;8.37;5.37;;;;;;;;;;4435934;32;20309;-53
2021/10/12 12:48:40;;;;;;;12.53;6.00;;;;;;;;;;4421347;32;20256;-53
2021/10/12 12:51:08;;;;;;;7.27;5.50;;;;;;;;;;4435627;32;20728;-54
2021/10/12 12:53:48;;;;;;;10.93;7.30;;;;;;;;;;4435462;32;20284;-53
2021/10/12 12:56:18;;;;;;;10.97;7.13;;;;;;;;;;4435341;32;20592;-53
2021/10/12 12:58:46;;;;;;;8.23;5.53;;;;;;;;;;4434936;32;20237;-53
2021/10/12 13:01:20;;;;;;;7.53;5.60;;;;;;;;;;4444454;32;20566;-53
2021/10/12 13:03:53;;;;;;;13.40;7.30;;;;;;;;;;4435561;32;20671;-53
2021/10/12 13:06:18;;;;;;;14.10;6.97;;;;;;;;;;4434863;32;20255;-52
2021/10/12 13:08:45;;;;;;;8.77;6.07;;;;;;;;;;4434589;32;20284;-53
2021/10/12 13:11:24;;;;;;;13.97;7.20;;;;;;;;;;4444331;32;20235;-53
2021/10/12 13:13:50;;;;;;;13.13;8.40;;;;;;;;;;4437635;32;20277;-54
2021/10/12 13:16:15;;;;;;;19.93;11.70;;;;;;;;;;4445303;32;20645;-53
2021/10/12 13:18:41;;;;;;;14.07;9.27;;;;;;;;;;4435134;32;20394;-54
2021/10/12 13:21:06;;;;;;;14.27;8.67;;;;;;;;;;4446934;32;20648;-54
2021/10/12 13:23:33;;;;;;;11.90;9.00;;;;;;;;;;4435113;32;20339;-54
2021/10/12 13:25:59;;;;;;;10.67;8.20;;;;;;;;;;4435298;32;20371;-54
2021/10/12 13:28:25;;;;;;;15.60;9.77;;;;;;;;;;4435534;32;21120;-55
2021/10/12 13:30:50;;;;;;;19.77;12.90;;;;;;;;;;4450030;32;20235;-54
2021/10/12 13:33:15;;;;;;;16.47;9.00;;;;;;;;;;4435690;32;20314;-54
2021/10/12 13:35:41;;;;;;;7.97;5.77;;;;;;;;;;4435065;32;20397;-54
2021/10/12 13:38:06;;;;;;;8.53;7.13;;;;;;;;;;4434439;32;20227;-54
2021/10/12 13:40:32;;;;;;;10.20;6.30;;;;;;;;;;4434581;32;20287;-53
2021/10/12 13:42:57;;;;;;;9.43;5.97;;;;;;;;;;4432707;32;20238;-53
2021/10/12 13:45:23;;;;;;;6.97;5.73;;;;;;;;;;4437056;32;20697;-52
2021/10/12 13:47:48;;;;;;;11.57;8.27;;;;;;;;;;4448184;32;20687;-53
2021/10/12 13:50:15;;;;;;;10.63;7.47;;;;;;;;;;4446271;32;20267;-53
2021/10/12 13:52:41;;;;;;;6.63;5.37;;;;;;;;;;4439181;32;20600;-53
2021/10/12 13:55:07;;;;;;;9.20;7.77;;;;;;;;;;4440555;32;20745;-54
2021/10/12 13:57:33;;;;;;;9.10;7.43;;;;;;;;;;4437649;32;20287;-54
2021/10/12 13:59:59;;;;;;;12.97;9.23;;;;;;;;;;4432398;32;20374;-54
2021/10/12 14:02:24;;;;;;;19.30;11.97;;;;;;;;;;4433675;32;20284;-54
2021/10/12 14:04:51;;;;;;;17.57;11.00;;;;;;;;;;4434160;32;20628;-53
2021/10/12 14:07:17;;;;;;;15.80;11.50;;;;;;;;;;4436046;32;20743;-53
2021/10/12 14:09:49;;;;;;;19.60;13.60;;;;;;;;;;4426052;32;20335;-54
2021/10/12 14:12:15;;;;;;;19.80;13.33;;;;;;;;;;4441517;32;20237;-54
2021/10/12 14:14:41;;;;;;;16.00;10.30;;;;;;;;;;4449470;32;20620;-55
2021/10/12 14:17:06;;;;;;;16.47;11.23;;;;;;;;;;4442424;32;20381;-54
2021/10/12 14:19:32;;;;;;;20.63;12.97;;;;;;;;;;4434378;32;20737;-54
2021/10/12 14:21:57;;;;;;;17.47;11.73;;;;;;;;;;4423550;32;20320;-55
2021/10/12 14:24:23;;;;;;;22.93;15.27;;;;;;;;;;4433467;32;20231;-53
2021/10/12 14:26:48;;;;;;;29.27;18.63;;;;;;;;;;4433910;32;20237;-54
2021/10/12 14:29:13;;;;;;;31.57;19.77;;;;;;;;;;4433824;32;20313;-55
2021/10/12 14:31:39;;;;;;;18.00;11.90;;;;;;;;;;4433498;32;20288;-54
2021/10/12 14:34:04;;;;;;;12.77;9.33;;;;;;;;;;4444055;32;20307;-53
2021/10/12 14:36:30;;;;;;;16.57;10.30;;;;;;;;;;4445795;32;20338;-54
2021/10/12 14:38:55;;;;;;;24.20;13.00;;;;;;;;;;4433739;32;20284;-53
2021/10/12 14:41:21;;;;;;;13.73;9.97;;;;;;;;;;4432978;32;20666;-53